Time;durP1;ratioP1;P1;durP2;ratioP2;P2;SDS_P1;SDS_P2;PMS_P1;PMS_P2;Temp;Humidity;BMP_temperature;BMP_pressure;BME280_temperature;BME280_humidity;BME280_pressure;Samples;Min_cycle;Max_cycle;Signal;HPM_P1;HPM_P2
2024/04/06 00:00:08;;;;;;;;;12.00;12.00;;;;;;;;5032015;28;8817;-67
2024/04/06 00:02:33;;;;;;;;;15.00;12.75;;;;;;;;5032388;28;8801;-68
2024/04/06 00:04:59;;;;;;;;;13.00;10.50;;;;;;;;5031894;28;11477;-68
2024/04/06 00:07:25;;;;;;;;;10.25;10.25;;;;;;;;5031826;28;8786;-67
2024/04/06 00:09:50;;;;;;;;;14.25;12.00;;;;;;;;5031679;28;11463;-68
2024/04/06 00:12:15;;;;;;;;;15.00;14.25;;;;;;;;5031952;28;8762;-68
2024/04/06 00:14:41;;;;;;;;;13.50;13.50;;;;;;;;5031862;28;8793;-68
2024/04/06 00:17:06;;;;;;;;;12.50;12.00;;;;;;;;5031694;28;8810;-68
2024/04/06 00:19:32;;;;;;;;;17.00;15.00;;;;;;;;5031439;28;8821;-68
2024/04/06 00:21:58;;;;;;;;;17.00;14.75;;;;;;;;5031665;28;8924;-66
2024/04/06 00:24:23;;;;;;;;;20.75;18.75;;;;;;;;5031574;28;12173;-67
2024/04/06 00:26:48;;;;;;;;;16.50;15.50;;;;;;;;5030105;28;8890;-66
2024/04/06 00:29:14;;;;;;;;;13.50;11.75;;;;;;;;5031388;28;8918;-68
2024/04/06 00:31:39;;;;;;;;;15.75;15.00;;;;;;;;5031420;28;8781;-67
2024/04/06 00:34:04;;;;;;;;;13.50;13.50;;;;;;;;5031410;28;8890;-67
2024/04/06 00:36:31;;;;;;;;;17.00;14.50;;;;;;;;5031294;28;8766;-67
2024/04/06 00:38:56;;;;;;;;;18.25;15.00;;;;;;;;5031008;28;8840;-68
2024/04/06 00:41:22;;;;;;;;;16.25;15.50;;;;;;;;5031175;28;11431;-67
2024/04/06 00:43:47;;;;;;;;;16.75;13.00;;;;;;;;5031245;28;8814;-66
2024/04/06 00:46:12;;;;;;;;;13.50;12.75;;;;;;;;5031257;28;8828;-67
2024/04/06 00:48:38;;;;;;;;;14.75;13.00;;;;;;;;5029739;28;9574;-67
2024/04/06 00:51:05;;;;;;;;;13.25;13.25;;;;;;;;5031082;28;8793;-67
2024/04/06 00:53:31;;;;;;;;;14.00;14.00;;;;;;;;5029506;28;8898;-67
2024/04/06 00:55:57;;;;;;;;;13.50;12.00;;;;;;;;5030358;28;12437;-67
2024/04/06 00:58:23;;;;;;;;;12.75;12.50;;;;;;;;5031027;28;8790;-67
2024/04/06 01:00:48;;;;;;;;;13.75;11.00;;;;;;;;5030918;28;8821;-66
2024/04/06 01:03:13;;;;;;;;;15.00;12.50;;;;;;;;5031248;28;8805;-67
2024/04/06 01:05:39;;;;;;;;;14.00;13.00;;;;;;;;5030937;28;8789;-67
2024/04/06 01:08:04;;;;;;;;;12.00;11.00;;;;;;;;5030617;28;8790;-67
2024/04/06 01:10:29;;;;;;;;;13.00;13.00;;;;;;;;5030919;28;8805;-67
2024/04/06 01:12:55;;;;;;;;;13.25;12.00;;;;;;;;5030898;28;8793;-67
2024/04/06 01:15:20;;;;;;;;;12.25;11.25;;;;;;;;5030656;28;8920;-67
2024/04/06 01:17:45;;;;;;;;;12.75;11.75;;;;;;;;5030585;28;8891;-67
2024/04/06 01:20:12;;;;;;;;;14.00;11.75;;;;;;;;5030649;28;8825;-67
2024/04/06 01:22:37;;;;;;;;;12.75;12.50;;;;;;;;5030530;28;8822;-67
2024/04/06 01:25:04;;;;;;;;;15.25;12.50;;;;;;;;5030477;28;11490;-67
2024/04/06 01:27:29;;;;;;;;;13.75;13.00;;;;;;;;5030675;28;8778;-67
2024/04/06 01:29:54;;;;;;;;;11.75;11.50;;;;;;;;5030402;28;12286;-67
2024/04/06 01:32:20;;;;;;;;;12.00;12.00;;;;;;;;5030458;28;8871;-67
2024/04/06 01:34:45;;;;;;;;;15.25;12.75;;;;;;;;5030460;28;8790;-67
2024/04/06 01:37:10;;;;;;;;;13.25;12.50;;;;;;;;5030307;28;8778;-67
2024/04/06 01:39:36;;;;;;;;;9.00;7.25;;;;;;;;5029071;28;8963;-67
2024/04/06 01:42:01;;;;;;;;;11.75;11.00;;;;;;;;5030518;28;8802;-67
2024/04/06 01:44:26;;;;;;;;;9.25;7.25;;;;;;;;5030453;28;8867;-67
2024/04/06 01:46:52;;;;;;;;;11.50;11.50;;;;;;;;5030293;28;8901;-67
2024/04/06 01:49:17;;;;;;;;;12.00;10.50;;;;;;;;5030512;28;9567;-68
2024/04/06 01:51:43;;;;;;;;;16.25;13.00;;;;;;;;5030312;28;8793;-67
2024/04/06 01:54:08;;;;;;;;;12.00;12.00;;;;;;;;5030284;28;8789;-68
2024/04/06 01:56:33;;;;;;;;;15.75;13.00;;;;;;;;5030416;28;8782;-68
2024/04/06 01:58:59;;;;;;;;;13.25;11.75;;;;;;;;5030175;28;8863;-67
2024/04/06 02:01:24;;;;;;;;;13.00;13.00;;;;;;;;5029994;28;9618;-67
2024/04/06 02:03:49;;;;;;;;;13.25;11.00;;;;;;;;5030631;28;8923;-68
2024/04/06 02:06:16;;;;;;;;;10.00;9.50;;;;;;;;5030006;28;9571;-68
2024/04/06 02:08:42;;;;;;;;;12.50;12.50;;;;;;;;5034117;28;8876;-68
2024/04/06 02:11:07;;;;;;;;;12.00;12.00;;;;;;;;5032847;28;12148;-68
2024/04/06 02:13:34;;;;;;;;;13.50;13.50;;;;;;;;5034135;28;8794;-68
2024/04/06 02:15:59;;;;;;;;;12.50;12.50;;;;;;;;5033993;28;8824;-68
2024/04/06 02:18:25;;;;;;;;;12.00;10.50;;;;;;;;5033816;28;11505;-68
2024/04/06 02:20:51;;;;;;;;;11.50;10.00;;;;;;;;5033631;28;8813;-68
2024/04/06 02:23:16;;;;;;;;;10.75;10.25;;;;;;;;5033961;28;8777;-67
2024/04/06 02:25:41;;;;;;;;;10.00;10.00;;;;;;;;5033670;28;11530;-67
2024/04/06 02:28:07;;;;;;;;;15.25;12.25;;;;;;;;5033667;28;8820;-67
2024/04/06 02:30:32;;;;;;;;;12.50;11.00;;;;;;;;5033686;28;8910;-67
2024/04/06 02:32:58;;;;;;;;;11.00;11.00;;;;;;;;5033842;28;8806;-67
2024/04/06 02:35:23;;;;;;;;;14.50;12.00;;;;;;;;5033563;28;9558;-67
2024/04/06 02:37:49;;;;;;;;;13.25;12.25;;;;;;;;5033751;28;8912;-68
2024/04/06 02:40:14;;;;;;;;;15.75;12.75;;;;;;;;5033737;28;8818;-67
2024/04/06 02:42:39;;;;;;;;;12.75;12.75;;;;;;;;5033537;28;8804;-67
2024/04/06 02:45:05;;;;;;;;;14.25;12.50;;;;;;;;5033427;28;8793;-67
2024/04/06 02:47:30;;;;;;;;;15.50;12.25;;;;;;;;5033562;28;8836;-67
2024/04/06 02:49:56;;;;;;;;;15.25;13.25;;;;;;;;5033270;28;8828;-65
2024/04/06 02:52:21;;;;;;;;;15.50;12.25;;;;;;;;5033599;28;8789;-66
2024/04/06 02:54:48;;;;;;;;;15.00;13.00;;;;;;;;5033373;28;8786;-66
2024/04/06 02:57:13;;;;;;;;;11.00;11.00;;;;;;;;5033274;28;8785;-65
2024/04/06 02:59:38;;;;;;;;;13.75;13.75;;;;;;;;5032958;28;11555;-65
2024/04/06 03:02:04;;;;;;;;;11.00;11.00;;;;;;;;5032981;28;9551;-65
2024/04/06 03:04:29;;;;;;;;;12.00;11.00;;;;;;;;5033506;28;8801;-66
2024/04/06 03:06:55;;;;;;;;;12.25;12.25;;;;;;;;5032946;28;12200;-66
2024/04/06 03:09:20;;;;;;;;;13.50;12.25;;;;;;;;5032907;28;8924;-65
2024/04/06 03:11:45;;;;;;;;;12.00;11.00;;;;;;;;5033061;28;8828;-65
2024/04/06 03:14:11;;;;;;;;;8.75;8.75;;;;;;;;5032918;28;8781;-65
2024/04/06 03:16:36;;;;;;;;;11.00;11.00;;;;;;;;5033070;28;8825;-65
2024/04/06 03:19:02;;;;;;;;;14.25;13.25;;;;;;;;5032057;28;8864;-65
2024/04/06 03:21:28;;;;;;;;;14.00;12.00;;;;;;;;5032850;28;8782;-65
2024/04/06 03:23:53;;;;;;;;;12.00;10.75;;;;;;;;5032742;28;8781;-64
2024/04/06 03:26:19;;;;;;;;;13.75;11.25;;;;;;;;5032575;28;11507;-65
2024/04/06 03:28:44;;;;;;;;;9.25;9.00;;;;;;;;5032654;28;8835;-65
2024/04/06 03:31:09;;;;;;;;;12.00;11.00;;;;;;;;5032670;28;8778;-64
2024/04/06 03:33:35;;;;;;;;;15.00;11.25;;;;;;;;5032557;28;9515;-65
2024/04/06 03:36:00;;;;;;;;;14.25;11.50;;;;;;;;5032330;28;8782;-64
2024/04/06 03:38:25;;;;;;;;;11.00;11.00;;;;;;;;5032451;28;9547;-64
2024/04/06 03:40:51;;;;;;;;;9.00;8.75;;;;;;;;5032533;28;8829;-65
2024/04/06 03:43:16;;;;;;;;;8.75;8.00;;;;;;;;5032552;28;8940;-65
2024/04/06 03:45:43;;;;;;;;;15.00;11.50;;;;;;;;5032368;28;8906;-65
2024/04/06 03:48:09;;;;;;;;;14.75;10.00;;;;;;;;5032221;28;8847;-65
2024/04/06 09:19:20;;;;;;;;;8.00;8.00;;;;;;;;5103057;27;14210;-72
2024/04/06 09:21:46;;;;;;;;;8.25;7.25;;;;;;;;5108414;28;8796;-77
2024/04/06 09:24:12;;;;;;;;;7.67;7.00;;;;;;;;5107175;28;8808;-72
2024/04/06 09:26:37;;;;;;;;;8.00;7.00;;;;;;;;5108055;28;8788;-71
2024/04/06 09:29:02;;;;;;;;;7.00;7.00;;;;;;;;5108676;28;8802;-71
2024/04/06 09:31:28;;;;;;;;;5.00;5.00;;;;;;;;5108382;28;8784;-69
2024/04/06 09:33:57;;;;;;;;;6.00;5.67;;;;;;;;5107248;28;8792;-69
2024/04/06 09:36:23;;;;;;;;;6.50;5.75;;;;;;;;5108096;28;8788;-69
2024/04/06 09:38:48;;;;;;;;;6.00;4.00;;;;;;;;5108297;28;8891;-69
2024/04/06 09:41:17;;;;;;;;;5.33;5.33;;;;;;;;5108206;28;8803;-70
2024/04/06 09:43:49;;;;;;;;;7.50;5.00;;;;;;;;5108226;28;8891;-68
2024/04/06 09:46:17;;;;;;;;;5.00;5.00;;;;;;;;5107986;28;8826;-70
2024/04/06 09:48:43;;;;;;;;;2.00;2.00;;;;;;;;5107889;28;8784;-71
2024/04/06 09:51:09;;;;;;;;;4.00;4.00;;;;;;;;5107983;28;8930;-71
2024/04/06 09:53:34;;;;;;;;;5.25;5.25;;;;;;;;5108036;28;9556;-69
2024/04/06 09:56:02;;;;;;;;;4.00;3.00;;;;;;;;5107814;28;8792;-71
2024/04/06 09:58:29;;;;;;;;;5.20;4.20;;;;;;;;5107755;28;8815;-70
2024/04/06 10:00:55;;;;;;;;;4.00;3.00;;;;;;;;5108107;28;8760;-71
2024/04/06 10:03:21;;;;;;;;;3.00;3.00;;;;;;;;5107700;28;9553;-71
2024/04/06 10:05:46;;;;;;;;;3.00;3.00;;;;;;;;5106460;28;8796;-71
2024/04/06 10:08:13;;;;;;;;;4.67;2.00;;;;;;;;5107715;28;9136;-72
2024/04/06 10:10:45;;;;;;;;;2.75;2.75;;;;;;;;5107673;28;8878;-68
2024/04/06 10:13:17;;;;;;;;;30.75;29.75;;;;;;;;5107676;28;8780;-67
2024/04/06 10:15:43;;;;;;;;;10.25;9.00;;;;;;;;5107757;28;9580;-69
2024/04/06 10:18:12;;;;;;;;;3.50;3.00;;;;;;;;5105799;28;8889;-67
2024/04/06 10:20:39;;;;;;;;;4.00;4.00;;;;;;;;5106434;28;8804;-67
2024/04/06 10:23:05;;;;;;;;;4.50;4.00;;;;;;;;5107134;28;8787;-67
2024/04/06 10:25:32;;;;;;;;;4.25;4.25;;;;;;;;5107141;28;8779;-67
2024/04/06 10:28:01;;;;;;;;;5.00;5.00;;;;;;;;5107206;28;8818;-67
2024/04/06 10:30:27;;;;;;;;;4.50;4.00;;;;;;;;5094713;28;8813;-67
2024/04/06 10:32:53;;;;;;;;;5.67;5.00;;;;;;;;5093658;28;8812;-67
2024/04/06 10:35:18;;;;;;;;;5.00;5.00;;;;;;;;5093444;28;8776;-67
2024/04/06 10:37:43;;;;;;;;;7.00;5.00;;;;;;;;5093093;28;11449;-67
2024/04/06 10:40:09;;;;;;;;;5.00;4.00;;;;;;;;5093350;28;8788;-69
2024/04/06 10:42:38;;;;;;;;;8.00;6.00;;;;;;;;5093386;28;9454;-69
2024/04/06 10:45:03;;;;;;;;;1.75;1.00;;;;;;;;5093208;28;8768;-71
2024/04/06 10:47:28;;;;;;;;;5.00;5.00;;;;;;;;5093154;28;8826;-69
2024/04/06 10:49:53;;;;;;;;;6.00;6.00;;;;;;;;5093254;28;8784;-71
2024/04/06 10:52:19;;;;;;;;;6.67;6.00;;;;;;;;5093539;28;8811;-69
2024/04/06 10:54:45;;;;;;;;;4.33;4.33;;;;;;;;5093153;28;8780;-71
2024/04/06 10:57:11;;;;;;;;;9.75;9.75;;;;;;;;5092863;28;10382;-71
2024/04/06 10:59:36;;;;;;;;;9.33;8.00;;;;;;;;5092006;28;8796;-71
2024/04/06 11:02:01;;;;;;;;;5.67;5.67;;;;;;;;5091719;28;8796;-71
2024/04/06 11:04:27;;;;;;;;;7.67;7.67;;;;;;;;5092967;28;8798;-71
2024/04/06 11:06:52;;;;;;;;;31.75;30.25;;;;;;;;5092797;28;8873;-71
2024/04/06 11:09:17;;;;;;;;;9.00;9.00;;;;;;;;5092778;28;8850;-71
2024/04/06 11:11:43;;;;;;;;;6.00;6.00;;;;;;;;5092808;28;8849;-71
2024/04/06 11:14:08;;;;;;;;;7.67;7.33;;;;;;;;5091522;28;9510;-72
2024/04/06 11:16:35;;;;;;;;;6.67;6.67;;;;;;;;5093143;28;8796;-74
2024/04/06 11:19:00;;;;;;;;;9.00;7.75;;;;;;;;5092536;28;8846;-72
2024/04/06 11:21:26;;;;;;;;;8.00;7.00;;;;;;;;5092684;28;8784;-71
2024/04/06 11:23:51;;;;;;;;;7.33;7.00;;;;;;;;5092697;28;8879;-68
2024/04/06 11:26:20;;;;;;;;;8.00;8.00;;;;;;;;5089162;28;8800;-67
2024/04/06 11:28:45;;;;;;;;;9.00;9.00;;;;;;;;5092188;28;8788;-68
2024/04/06 11:31:11;;;;;;;;;11.00;11.00;;;;;;;;5090747;28;8796;-68
2024/04/06 11:33:36;;;;;;;;;13.33;11.33;;;;;;;;5092076;28;8783;-70
2024/04/06 11:36:01;;;;;;;;;14.33;10.33;;;;;;;;5092088;28;8995;-68
2024/04/06 11:38:28;;;;;;;;;12.33;11.00;;;;;;;;5090579;28;8826;-68
2024/04/06 11:40:54;;;;;;;;;34.25;30.25;;;;;;;;5090771;28;8784;-71
2024/04/06 11:43:20;;;;;;;;;33.00;29.25;;;;;;;;5090574;28;10396;-70
2024/04/06 11:45:45;;;;;;;;;9.33;9.33;;;;;;;;5091851;28;10737;-68
2024/04/06 11:48:12;;;;;;;;;9.00;9.00;;;;;;;;5091817;28;8844;-69
2024/04/06 11:50:38;;;;;;;;;11.33;9.33;;;;;;;;5090781;28;9535;-70
2024/04/06 11:53:03;;;;;;;;;9.67;8.00;;;;;;;;5087242;28;8947;-68
2024/04/06 11:55:28;;;;;;;;;9.00;8.33;;;;;;;;5080224;28;8810;-69
2024/04/06 11:57:54;;;;;;;;;12.33;10.00;;;;;;;;5068574;28;8838;-69
2024/04/06 12:00:19;;;;;;;;;8.33;8.00;;;;;;;;5067854;28;8829;-69
2024/04/06 12:02:44;;;;;;;;;6.00;6.00;;;;;;;;5069485;28;9524;-69
2024/04/06 12:05:10;;;;;;;;;8.00;6.00;;;;;;;;5069317;28;8814;-68
2024/04/06 12:07:38;;;;;;;;;11.00;8.33;;;;;;;;5069430;28;8825;-68
2024/04/06 12:10:05;;;;;;;;;12.67;10.00;;;;;;;;5069920;28;8909;-69
2024/04/06 12:12:30;;;;;;;;;9.33;9.33;;;;;;;;5070202;28;8958;-68
2024/04/06 12:14:56;;;;;;;;;9.33;9.33;;;;;;;;5071209;28;9227;-69
2024/04/06 12:17:27;;;;;;;;;11.00;10.00;;;;;;;;5086518;28;8858;-72
2024/04/06 12:19:52;;;;;;;;;10.00;10.00;;;;;;;;5090895;28;8798;-71
2024/04/06 12:22:19;;;;;;;;;9.33;8.33;;;;;;;;5089602;28;9027;-72
2024/04/06 12:24:44;;;;;;;;;8.67;8.00;;;;;;;;5028301;28;10305;-71
2024/04/06 12:27:11;;;;;;;;;10.33;9.33;;;;;;;;5047848;28;8946;-72
2024/04/06 12:29:36;;;;;;;;;5.33;5.33;;;;;;;;5048650;28;8818;-72
2024/04/06 12:32:01;;;;;;;;;7.00;7.00;;;;;;;;5051003;28;8892;-72
2024/04/06 12:34:26;;;;;;;;;6.00;6.00;;;;;;;;5048762;28;8929;-72
2024/04/06 12:36:52;;;;;;;;;8.00;6.00;;;;;;;;5048711;28;8791;-72
2024/04/06 12:39:17;;;;;;;;;7.33;6.67;;;;;;;;5049108;28;9685;-72
2024/04/06 12:41:42;;;;;;;;;5.00;5.00;;;;;;;;5050378;28;8892;-72
2024/04/06 12:44:08;;;;;;;;;3.67;3.67;;;;;;;;5050106;28;8815;-73
2024/04/06 12:46:33;;;;;;;;;5.00;5.00;;;;;;;;5047967;28;8953;-73
2024/04/06 12:48:58;;;;;;;;;4.33;4.33;;;;;;;;5048479;28;8853;-71
2024/04/06 12:51:23;;;;;;;;;4.67;4.00;;;;;;;;5050183;28;8802;-70
2024/04/06 12:53:49;;;;;;;;;3.33;3.33;;;;;;;;5048832;28;8838;-69
2024/04/06 12:56:14;;;;;;;;;4.00;4.00;;;;;;;;5050071;28;8786;-70
2024/04/06 12:58:39;;;;;;;;;3.00;3.00;;;;;;;;5050442;28;8811;-70
2024/04/06 13:01:04;;;;;;;;;4.00;3.00;;;;;;;;5050437;28;8789;-70
2024/04/06 13:03:30;;;;;;;;;2.67;2.00;;;;;;;;5019500;28;11067;-69
2024/04/06 13:06:02;;;;;;;;;2.33;2.00;;;;;;;;5050298;28;8765;-69
2024/04/06 13:08:27;;;;;;;;;3.75;3.00;;;;;;;;5048447;28;8820;-72
2024/04/06 13:10:53;;;;;;;;;4.00;3.00;;;;;;;;5018897;28;11218;-69
2024/04/06 13:13:18;;;;;;;;;3.00;3.00;;;;;;;;5002746;28;10380;-70
2024/04/06 13:15:43;;;;;;;;;2.00;2.00;;;;;;;;4914596;28;57306;-69
2024/04/06 13:18:09;;;;;;;;;2.00;2.00;;;;;;;;5044014;28;9446;-66
2024/04/06 13:20:34;;;;;;;;;3.67;3.00;;;;;;;;5050228;28;8793;-66
2024/04/06 13:22:59;;;;;;;;;3.33;3.33;;;;;;;;5050304;28;8789;-67
2024/04/06 13:25:24;;;;;;;;;2.67;2.67;;;;;;;;5048615;28;8827;-67
2024/04/06 13:27:50;;;;;;;;;2.67;2.00;;;;;;;;5050252;28;8926;-67
2024/04/06 13:30:15;;;;;;;;;3.67;3.33;;;;;;;;5050131;28;8789;-66
2024/04/06 13:32:41;;;;;;;;;3.67;2.00;;;;;;;;5050049;28;8804;-66
2024/04/06 13:35:06;;;;;;;;;2.00;2.00;;;;;;;;5048611;28;8809;-67
2024/04/06 13:37:32;;;;;;;;;2.00;2.00;;;;;;;;5050095;28;8824;-67
2024/04/06 13:39:58;;;;;;;;;3.00;3.00;;;;;;;;5049890;28;8830;-67
2024/04/06 13:42:23;;;;;;;;;3.00;3.00;;;;;;;;5050023;28;9519;-67
2024/04/06 13:44:49;;;;;;;;;1.67;1.67;;;;;;;;5050099;28;8897;-68
2024/04/06 13:47:14;;;;;;;;;2.00;2.00;;;;;;;;5049898;28;8799;-68
2024/04/06 13:49:40;;;;;;;;;3.00;3.00;;;;;;;;5050051;28;8777;-68
2024/04/06 13:52:06;;;;;;;;;3.00;3.00;;;;;;;;5050128;28;8797;-67
2024/04/06 13:54:32;;;;;;;;;4.00;3.00;;;;;;;;5049722;28;8820;-68
2024/04/06 13:57:00;;;;;;;;;6.00;6.00;;;;;;;;5049733;28;9579;-68
2024/04/06 13:59:26;;;;;;;;;3.33;3.00;;;;;;;;5049927;28;8808;-67
2024/04/06 14:01:51;;;;;;;;;3.67;3.67;;;;;;;;5049808;28;9056;-67
2024/04/06 14:04:17;;;;;;;;;4.25;4.25;;;;;;;;5050604;28;9258;-67
2024/04/06 14:06:44;;;;;;;;;3.50;3.50;;;;;;;;5053685;28;8912;-67
2024/04/06 14:09:10;;;;;;;;;5.25;4.00;;;;;;;;5053222;28;9510;-67
2024/04/06 14:11:35;;;;;;;;;7.00;5.33;;;;;;;;5053571;28;9546;-68
2024/04/06 14:14:02;;;;;;;;;3.00;3.00;;;;;;;;5051167;28;8797;-67
2024/04/06 14:16:28;;;;;;;;;2.75;2.75;;;;;;;;5053336;28;9539;-68
2024/04/06 14:18:57;;;;;;;;;4.00;3.00;;;;;;;;5052165;28;8837;-67
2024/04/06 14:21:26;;;;;;;;;3.67;3.67;;;;;;;;5051902;28;9860;-66
2024/04/06 14:23:51;;;;;;;;;3.00;3.00;;;;;;;;5052921;28;9035;-66
2024/04/06 14:26:16;;;;;;;;;3.00;3.00;;;;;;;;5053086;28;8950;-66
2024/04/06 14:28:42;;;;;;;;;3.00;2.00;;;;;;;;5053131;28;8805;-66
2024/04/06 14:31:07;;;;;;;;;4.50;3.75;;;;;;;;5053035;28;8785;-66
2024/04/06 14:33:33;;;;;;;;;5.75;5.75;;;;;;;;5052967;28;8870;-66
2024/04/06 14:35:59;;;;;;;;;6.00;6.00;;;;;;;;5052828;28;8835;-67
2024/04/06 14:38:24;;;;;;;;;6.75;6.75;;;;;;;;5052596;28;8959;-66
2024/04/06 14:40:49;;;;;;;;;6.00;6.00;;;;;;;;5052096;28;8881;-66
2024/04/06 14:43:15;;;;;;;;;8.00;6.00;;;;;;;;5052189;28;8793;-66
2024/04/06 14:45:40;;;;;;;;;7.00;6.25;;;;;;;;5052237;28;8789;-66
2024/04/06 14:48:06;;;;;;;;;6.75;6.75;;;;;;;;5051220;28;8889;-66
2024/04/06 14:50:31;;;;;;;;;2.00;2.00;;;;;;;;5052784;28;8808;-69
2024/04/06 14:52:57;;;;;;;;;4.00;4.00;;;;;;;;5048922;28;8795;-67
2024/04/06 14:55:22;;;;;;;;;4.00;4.00;;;;;;;;5049508;28;8906;-68
2024/04/06 14:57:47;;;;;;;;;5.00;5.00;;;;;;;;5052285;28;8911;-68
2024/04/06 15:00:15;;;;;;;;;5.25;5.25;;;;;;;;5052702;28;8781;-71
2024/04/06 15:02:41;;;;;;;;;5.50;5.50;;;;;;;;5051248;28;8836;-70
2024/04/06 15:05:07;;;;;;;;;5.00;5.00;;;;;;;;5052466;28;9944;-69
2024/04/06 15:07:32;;;;;;;;;5.00;5.00;;;;;;;;5052244;28;8836;-70
2024/04/06 15:09:58;;;;;;;;;4.25;4.25;;;;;;;;5084476;28;9808;-71
2024/04/06 15:12:23;;;;;;;;;4.50;4.50;;;;;;;;5052266;28;9744;-71
2024/04/06 15:14:49;;;;;;;;;6.00;6.00;;;;;;;;5052545;28;8817;-67
2024/04/06 15:17:14;;;;;;;;;7.50;5.25;;;;;;;;5067359;28;8857;-67
2024/04/06 15:19:40;;;;;;;;;6.25;6.25;;;;;;;;5052324;28;8805;-67
2024/04/06 15:22:07;;;;;;;;;6.00;6.00;;;;;;;;5052029;28;8809;-67
2024/04/06 15:24:33;;;;;;;;;5.67;4.00;;;;;;;;5051931;28;8815;-67
2024/04/06 15:26:58;;;;;;;;;7.00;4.67;;;;;;;;5048458;28;9351;-70
2024/04/06 15:29:23;;;;;;;;;10.00;8.00;;;;;;;;5052073;28;8827;-70
2024/04/06 15:31:49;;;;;;;;;8.75;8.00;;;;;;;;5051429;28;8971;-68
2024/04/06 15:34:14;;;;;;;;;19.75;17.25;;;;;;;;5051854;28;9575;-69
2024/04/06 15:36:39;;;;;;;;;14.00;14.00;;;;;;;;5051823;28;8850;-69
2024/04/06 15:39:18;;;;;;;;;12.75;12.75;;;;;;;;5050585;28;8825;-71
2024/04/06 15:41:43;;;;;;;;;4.67;4.00;;;;;;;;5052038;28;8789;-67
2024/04/06 15:44:09;;;;;;;;;6.00;4.67;;;;;;;;5050204;28;9025;-69
2024/04/06 15:46:34;;;;;;;;;3.00;3.00;;;;;;;;5051334;28;9567;-69
2024/04/06 15:48:59;;;;;;;;;8.33;8.33;;;;;;;;5050929;28;8802;-68
2024/04/06 15:51:25;;;;;;;;;8.33;5.00;;;;;;;;5050280;28;8935;-70
2024/04/06 15:53:50;;;;;;;;;4.00;4.00;;;;;;;;5048239;28;8836;-67
2024/04/06 15:56:15;;;;;;;;;5.00;5.00;;;;;;;;5050634;28;8797;-69
2024/04/06 15:58:41;;;;;;;;;4.33;4.33;;;;;;;;5051335;28;8839;-68
2024/04/06 16:01:06;;;;;;;;;9.00;7.00;;;;;;;;5050958;28;8793;-67
2024/04/06 16:03:31;;;;;;;;;8.67;8.00;;;;;;;;5048379;28;9709;-67
2024/04/06 16:05:56;;;;;;;;;3.33;3.00;;;;;;;;5055549;28;8790;-68
2024/04/06 16:08:25;;;;;;;;;6.33;6.33;;;;;;;;5059963;28;8813;-69
2024/04/06 16:10:51;;;;;;;;;6.00;4.00;;;;;;;;5050878;28;8824;-69
2024/04/06 16:13:16;;;;;;;;;5.00;5.00;;;;;;;;5050864;28;9695;-68
2024/04/06 16:15:41;;;;;;;;;5.00;5.00;;;;;;;;5047901;28;9593;-70
2024/04/06 16:18:07;;;;;;;;;5.00;4.00;;;;;;;;5050652;28;8845;-71
2024/04/06 16:20:32;;;;;;;;;13.50;12.50;;;;;;;;5051033;28;8781;-68
2024/04/06 16:22:57;;;;;;;;;16.00;14.50;;;;;;;;5051110;28;9615;-67
2024/04/06 16:25:22;;;;;;;;;7.67;7.67;;;;;;;;5049310;28;8789;-67
2024/04/06 16:27:48;;;;;;;;;9.33;9.33;;;;;;;;5050278;28;8821;-67
2024/04/06 16:30:13;;;;;;;;;23.00;18.50;;;;;;;;5050789;28;8822;-67
2024/04/06 16:32:38;;;;;;;;;6.00;6.00;;;;;;;;5051049;28;8809;-67
2024/04/06 16:35:04;;;;;;;;;6.00;5.00;;;;;;;;5048901;28;8805;-68
2024/04/06 16:37:30;;;;;;;;;7.00;4.00;;;;;;;;5050858;28;8872;-67
2024/04/06 16:39:56;;;;;;;;;7.33;5.00;;;;;;;;5050125;28;8917;-67
2024/04/06 16:42:21;;;;;;;;;6.33;6.00;;;;;;;;5050969;28;9083;-67
2024/04/06 16:44:46;;;;;;;;;4.33;4.33;;;;;;;;5049195;28;8801;-68
2024/04/06 16:47:12;;;;;;;;;5.00;5.00;;;;;;;;5050756;28;8920;-68
2024/04/06 16:49:37;;;;;;;;;6.00;6.00;;;;;;;;5048746;28;8805;-68
2024/04/06 16:52:02;;;;;;;;;8.67;6.00;;;;;;;;5050343;28;8805;-68
2024/04/06 16:54:28;;;;;;;;;4.00;4.00;;;;;;;;5048582;28;8797;-68
2024/04/06 20:50:59;;;;;;;;;8.00;6.00;;;;;;;;5104276;27;13382;-71
2024/04/06 20:53:24;;;;;;;;;7.25;4.50;;;;;;;;5109725;28;11009;-70
2024/04/06 20:55:50;;;;;;;;;7.25;7.25;;;;;;;;5107776;28;8800;-71
2024/04/06 20:58:15;;;;;;;;;8.00;8.00;;;;;;;;5107668;28;8807;-71
2024/04/06 21:00:41;;;;;;;;;24.00;21.25;;;;;;;;5107334;28;8869;-70
2024/04/06 21:03:06;;;;;;;;;22.00;15.75;;;;;;;;5107328;28;8796;-75
2024/04/06 21:05:31;;;;;;;;;15.00;14.00;;;;;;;;5107538;28;8810;-75
2024/04/06 21:07:57;;;;;;;;;11.50;10.50;;;;;;;;5106243;28;8824;-75
2024/04/06 21:10:22;;;;;;;;;37.75;33.25;;;;;;;;5107240;28;8927;-74
2024/04/06 21:12:49;;;;;;;;;46.75;39.75;;;;;;;;5107078;28;8788;-74
2024/04/06 21:15:18;;;;;;;;;80.67;62.00;;;;;;;;5107088;28;8768;-74
2024/04/06 21:17:44;;;;;;;;;23.25;22.25;;;;;;;;5105572;28;8800;-74
2024/04/06 21:20:10;;;;;;;;;23.50;21.75;;;;;;;;5112654;27;11455;-74
2024/04/06 21:22:35;;;;;;;;;14.75;13.00;;;;;;;;5106761;27;8900;-74
2024/04/06 21:25:00;;;;;;;;;15.50;14.50;;;;;;;;5105275;27;8768;-74
2024/04/06 21:27:26;;;;;;;;;14.50;12.00;;;;;;;;5105821;27;8788;-74
2024/04/06 21:29:51;;;;;;;;;12.00;12.00;;;;;;;;5103827;28;8811;-73
2024/04/06 21:32:18;;;;;;;;;11.00;10.75;;;;;;;;5109188;28;8944;-74
2024/04/06 21:34:43;;;;;;;;;9.25;9.25;;;;;;;;5114305;27;8870;-73
2024/04/06 21:37:08;;;;;;;;;11.00;9.00;;;;;;;;5112940;28;10692;-72
2024/04/06 21:39:34;;;;;;;;;9.75;9.75;;;;;;;;5106511;28;8892;-69
2024/04/06 21:41:59;;;;;;;;;8.25;8.25;;;;;;;;5106346;28;9522;-72
2024/04/06 21:44:24;;;;;;;;;9.75;9.00;;;;;;;;5106194;28;8772;-73
2024/04/06 21:46:49;;;;;;;;;9.75;9.25;;;;;;;;5106870;28;8772;-69
2024/04/06 21:49:15;;;;;;;;;5.50;5.50;;;;;;;;5106783;28;8940;-70
2024/04/06 21:51:40;;;;;;;;;7.50;7.00;;;;;;;;5107032;28;8775;-70
2024/04/06 21:54:05;;;;;;;;;5.50;5.50;;;;;;;;5107375;28;8808;-70
2024/04/06 21:56:31;;;;;;;;;7.25;5.00;;;;;;;;5107214;28;8833;-69
2024/04/06 21:58:56;;;;;;;;;10.75;8.25;;;;;;;;5107099;28;8822;-69
2024/04/06 22:01:23;;;;;;;;;11.00;7.75;;;;;;;;5098752;28;8863;-70
2024/04/06 22:03:48;;;;;;;;;7.25;7.25;;;;;;;;5093657;28;8775;-68
2024/04/06 22:06:14;;;;;;;;;5.00;5.00;;;;;;;;5088963;28;10621;-69
2024/04/06 22:08:39;;;;;;;;;8.00;8.00;;;;;;;;5075120;28;8783;-70
2024/04/06 22:11:06;;;;;;;;;8.25;7.75;;;;;;;;5071799;28;8767;-70
2024/04/06 22:13:31;;;;;;;;;8.75;7.00;;;;;;;;5073051;28;8795;-70
2024/04/06 22:15:57;;;;;;;;;7.00;7.00;;;;;;;;5080073;28;11061;-70
2024/04/06 22:18:23;;;;;;;;;13.50;11.00;;;;;;;;5093206;28;8798;-70
2024/04/06 22:20:48;;;;;;;;;19.00;18.25;;;;;;;;5092989;28;8824;-70
2024/04/06 22:23:13;;;;;;;;;13.75;12.00;;;;;;;;5091872;28;8802;-70
2024/04/06 22:25:41;;;;;;;;;13.75;13.25;;;;;;;;5093049;28;8780;-70
2024/04/06 22:28:06;;;;;;;;;9.50;9.50;;;;;;;;5092986;28;8780;-70
2024/04/06 22:30:31;;;;;;;;;11.00;8.50;;;;;;;;5092390;28;10924;-70
2024/04/06 22:32:57;;;;;;;;;9.00;9.00;;;;;;;;5092920;28;8896;-70
2024/04/06 22:35:22;;;;;;;;;10.25;8.25;;;;;;;;5092681;28;9521;-70
2024/04/06 22:37:47;;;;;;;;;9.25;9.00;;;;;;;;5092757;28;8776;-70
2024/04/06 22:40:18;;;;;;;;;9.75;9.75;;;;;;;;5091353;28;8864;-70
2024/04/06 22:42:43;;;;;;;;;10.00;9.00;;;;;;;;5092787;28;8772;-70
2024/04/06 22:45:08;;;;;;;;;9.75;9.00;;;;;;;;5092532;28;11179;-70
2024/04/06 22:47:34;;;;;;;;;12.00;9.00;;;;;;;;5092580;28;8784;-69
2024/04/06 22:50:00;;;;;;;;;9.25;9.25;;;;;;;;5092384;28;8839;-69
2024/04/06 22:52:25;;;;;;;;;8.00;8.00;;;;;;;;5092203;28;8806;-70
2024/04/06 22:54:50;;;;;;;;;9.50;8.00;;;;;;;;5092686;28;8780;-69
2024/04/06 22:57:16;;;;;;;;;15.00;10.25;;;;;;;;5092327;28;8805;-69
2024/04/06 22:59:41;;;;;;;;;13.00;12.00;;;;;;;;5092430;28;8839;-69
2024/04/06 23:02:06;;;;;;;;;14.75;14.75;;;;;;;;5092422;28;8861;-69
2024/04/06 23:04:31;;;;;;;;;8.00;8.00;;;;;;;;5092196;28;8769;-70
2024/04/06 23:06:57;;;;;;;;;7.75;7.00;;;;;;;;5092409;28;8882;-68
2024/04/06 23:09:22;;;;;;;;;7.00;6.50;;;;;;;;5092346;28;8772;-70
2024/04/06 23:11:48;;;;;;;;;7.00;7.00;;;;;;;;5091943;28;8804;-70
2024/04/06 23:14:13;;;;;;;;;8.75;8.00;;;;;;;;5091350;28;8780;-70
2024/04/06 23:16:39;;;;;;;;;7.00;6.00;;;;;;;;5092740;28;11071;-70
2024/04/06 23:19:04;;;;;;;;;7.00;7.00;;;;;;;;5090509;28;8835;-69
2024/04/06 23:21:30;;;;;;;;;7.00;6.75;;;;;;;;5092029;28;8768;-69
2024/04/06 23:23:55;;;;;;;;;7.00;6.25;;;;;;;;5092040;28;8988;-69
2024/04/06 23:26:20;;;;;;;;;8.50;7.50;;;;;;;;5091823;28;8776;-70
2024/04/06 23:28:46;;;;;;;;;9.75;7.50;;;;;;;;5091942;28;8783;-69
2024/04/06 23:31:11;;;;;;;;;11.75;8.00;;;;;;;;5091825;28;9509;-69
2024/04/06 23:33:36;;;;;;;;;7.50;7.50;;;;;;;;5090390;28;8816;-69
2024/04/06 23:36:02;;;;;;;;;7.00;6.50;;;;;;;;5091487;28;8817;-69
2024/04/06 23:38:28;;;;;;;;;7.75;7.50;;;;;;;;5091643;28;8834;-69
2024/04/06 23:40:53;;;;;;;;;6.75;6.75;;;;;;;;5091472;28;10927;-69
2024/04/06 23:43:18;;;;;;;;;8.50;8.00;;;;;;;;5091691;28;8775;-68
2024/04/06 23:45:44;;;;;;;;;7.50;7.00;;;;;;;;5091480;28;8799;-68
2024/04/06 23:48:10;;;;;;;;;9.25;6.50;;;;;;;;5091482;28;8799;-68
2024/04/06 23:50:35;;;;;;;;;10.25;7.75;;;;;;;;5091210;28;8826;-68
2024/04/06 23:53:00;;;;;;;;;7.50;6.75;;;;;;;;5091251;28;11607;-68
2024/04/06 23:55:26;;;;;;;;;8.50;6.50;;;;;;;;5091402;28;9660;-68
2024/04/06 23:57:51;;;;;;;;;6.00;6.00;;;;;;;;5091271;28;8883;-68
